sensor_id;sensor_type;location;lat;lon;timestamp;P1;durP1;ratioP1;P2;durP2;ratioP2
49610;SDS011;35515;48.766;9.176;2024-03-02T00:00:14;14.77;;;10.48;;
49610;SDS011;35515;48.766;9.176;2024-03-02T00:02:40;14.07;;;9.45;;
49610;SDS011;35515;48.766;9.176;2024-03-02T00:05:07;16.88;;;9.90;;
49610;SDS011;35515;48.766;9.176;2024-03-02T00:07:35;14.88;;;9.88;;
49610;SDS011;35515;48.766;9.176;2024-03-02T00:10:03;15.82;;;10.70;;
49610;SDS011;35515;48.766;9.176;2024-03-02T00:12:35;15.68;;;10.35;;
49610;SDS011;35515;48.766;9.176;2024-03-02T00:15:03;13.20;;;10.00;;
49610;SDS011;35515;48.766;9.176;2024-03-02T00:17:32;14.05;;;9.68;;
49610;SDS011;35515;48.766;9.176;2024-03-02T00:19:59;14.02;;;10.45;;
49610;SDS011;35515;48.766;9.176;2024-03-02T00:22:28;15.25;;;10.30;;
49610;SDS011;35515;48.766;9.176;2024-03-02T00:24:56;15.48;;;10.18;;
49610;SDS011;35515;48.766;9.176;2024-03-02T00:27:22;13.25;;;9.90;;
49610;SDS011;35515;48.766;9.176;2024-03-02T00:29:50;14.05;;;9.57;;
49610;SDS011;35515;48.766;9.176;2024-03-02T00:32:16;11.70;;;8.50;;
49610;SDS011;35515;48.766;9.176;2024-03-02T00:34:43;13.00;;;8.43;;
49610;SDS011;35515;48.766;9.176;2024-03-02T00:37:09;11.18;;;9.00;;
49610;SDS011;35515;48.766;9.176;2024-03-02T00:39:37;12.02;;;9.02;;
49610;SDS011;35515;48.766;9.176;2024-03-02T00:42:05;13.60;;;9.05;;
49610;SDS011;35515;48.766;9.176;2024-03-02T00:44:33;11.93;;;8.68;;
49610;SDS011;35515;48.766;9.176;2024-03-02T00:47:00;14.48;;;8.43;;
49610;SDS011;35515;48.766;9.176;2024-03-02T00:49:28;14.57;;;8.80;;
49610;SDS011;35515;48.766;9.176;2024-03-02T00:51:55;10.82;;;8.00;;
49610;SDS011;35515;48.766;9.176;2024-03-02T00:54:22;12.13;;;8.43;;
49610;SDS011;35515;48.766;9.176;2024-03-02T00:56:50;10.27;;;7.90;;
49610;SDS011;35515;48.766;9.176;2024-03-02T00:59:18;11.35;;;7.93;;
49610;SDS011;35515;48.766;9.176;2024-03-02T01:01:45;13.35;;;8.48;;
49610;SDS011;35515;48.766;9.176;2024-03-02T01:04:11;11.85;;;7.90;;
49610;SDS011;35515;48.766;9.176;2024-03-02T01:06:39;11.15;;;7.70;;
49610;SDS011;35515;48.766;9.176;2024-03-02T01:09:05;13.85;;;8.88;;
49610;SDS011;35515;48.766;9.176;2024-03-02T01:11:32;12.48;;;8.18;;
49610;SDS011;35515;48.766;9.176;2024-03-02T01:13:59;11.32;;;8.35;;
49610;SDS011;35515;48.766;9.176;2024-03-02T01:16:27;13.20;;;8.45;;
49610;SDS011;35515;48.766;9.176;2024-03-02T01:18:53;11.05;;;6.95;;
49610;SDS011;35515;48.766;9.176;2024-03-02T01:21:20;12.00;;;8.50;;
49610;SDS011;35515;48.766;9.176;2024-03-02T01:23:46;12.07;;;8.50;;
49610;SDS011;35515;48.766;9.176;2024-03-02T01:26:13;12.45;;;8.30;;
49610;SDS011;35515;48.766;9.176;2024-03-02T01:28:39;11.98;;;8.52;;
49610;SDS011;35515;48.766;9.176;2024-03-02T01:31:06;10.68;;;7.32;;
49610;SDS011;35515;48.766;9.176;2024-03-02T01:33:34;13.55;;;8.95;;
49610;SDS011;35515;48.766;9.176;2024-03-02T01:36:00;12.57;;;8.55;;
49610;SDS011;35515;48.766;9.176;2024-03-02T01:38:27;11.38;;;8.25;;
49610;SDS011;35515;48.766;9.176;2024-03-02T01:40:53;15.65;;;9.00;;
49610;SDS011;35515;48.766;9.176;2024-03-02T01:43:21;13.77;;;9.10;;
49610;SDS011;35515;48.766;9.176;2024-03-02T01:45:48;11.90;;;8.13;;
49610;SDS011;35515;48.766;9.176;2024-03-02T01:48:14;12.80;;;9.00;;
49610;SDS011;35515;48.766;9.176;2024-03-02T01:50:42;14.02;;;8.52;;
49610;SDS011;35515;48.766;9.176;2024-03-02T01:53:09;12.27;;;8.68;;
49610;SDS011;35515;48.766;9.176;2024-03-02T01:55:35;10.80;;;7.97;;
49610;SDS011;35515;48.766;9.176;2024-03-02T01:58:02;13.57;;;9.35;;
49610;SDS011;35515;48.766;9.176;2024-03-02T02:00:29;14.70;;;8.70;;
49610;SDS011;35515;48.766;9.176;2024-03-02T02:02:55;11.68;;;8.52;;
49610;SDS011;35515;48.766;9.176;2024-03-02T02:05:22;33.33;;;10.32;;
49610;SDS011;35515;48.766;9.176;2024-03-02T02:07:50;15.35;;;9.80;;
49610;SDS011;35515;48.766;9.176;2024-03-02T02:10:17;12.18;;;8.10;;
49610;SDS011;35515;48.766;9.176;2024-03-02T02:12:44;12.00;;;8.93;;
49610;SDS011;35515;48.766;9.176;2024-03-02T02:15:23;13.60;;;9.27;;
49610;SDS011;35515;48.766;9.176;2024-03-02T02:17:50;12.38;;;8.50;;
49610;SDS011;35515;48.766;9.176;2024-03-02T02:20:17;12.43;;;8.20;;
49610;SDS011;35515;48.766;9.176;2024-03-02T02:22:59;13.90;;;8.57;;
49610;SDS011;35515;48.766;9.176;2024-03-02T02:25:26;13.13;;;9.25;;
49610;SDS011;35515;48.766;9.176;2024-03-02T02:27:53;16.25;;;9.25;;
49610;SDS011;35515;48.766;9.176;2024-03-02T02:30:20;12.93;;;8.23;;
49610;SDS011;35515;48.766;9.176;2024-03-02T02:32:48;13.40;;;8.90;;
49610;SDS011;35515;48.766;9.176;2024-03-02T02:35:14;13.40;;;9.48;;
49610;SDS011;35515;48.766;9.176;2024-03-02T02:37:41;14.68;;;9.13;;
49610;SDS011;35515;48.766;9.176;2024-03-02T02:40:10;13.95;;;9.18;;
49610;SDS011;35515;48.766;9.176;2024-03-02T02:42:37;13.60;;;8.93;;
49610;SDS011;35515;48.766;9.176;2024-03-02T02:45:04;13.60;;;8.55;;
49610;SDS011;35515;48.766;9.176;2024-03-02T02:47:31;13.73;;;8.88;;
49610;SDS011;35515;48.766;9.176;2024-03-02T02:50:00;12.07;;;8.80;;
49610;SDS011;35515;48.766;9.176;2024-03-02T02:52:30;13.63;;;8.65;;
49610;SDS011;35515;48.766;9.176;2024-03-02T02:54:58;14.20;;;8.82;;
49610;SDS011;35515;48.766;9.176;2024-03-02T02:57:25;12.13;;;8.98;;
49610;SDS011;35515;48.766;9.176;2024-03-02T02:59:53;12.88;;;9.02;;
49610;SDS011;35515;48.766;9.176;2024-03-02T03:02:19;13.27;;;9.43;;
49610;SDS011;35515;48.766;9.176;2024-03-02T03:04:46;15.02;;;9.23;;
49610;SDS011;35515;48.766;9.176;2024-03-02T03:07:12;14.38;;;9.07;;
49610;SDS011;35515;48.766;9.176;2024-03-02T03:09:39;13.30;;;9.20;;
49610;SDS011;35515;48.766;9.176;2024-03-02T03:12:05;14.45;;;9.88;;
49610;SDS011;35515;48.766;9.176;2024-03-02T03:14:33;15.80;;;8.80;;
49610;SDS011;35515;48.766;9.176;2024-03-02T03:17:00;13.32;;;9.35;;
49610;SDS011;35515;48.766;9.176;2024-03-02T03:19:26;13.93;;;9.30;;
49610;SDS011;35515;48.766;9.176;2024-03-02T03:21:53;15.30;;;9.43;;
49610;SDS011;35515;48.766;9.176;2024-03-02T03:24:19;13.02;;;8.30;;
49610;SDS011;35515;48.766;9.176;2024-03-02T03:26:46;12.85;;;9.25;;
49610;SDS011;35515;48.766;9.176;2024-03-02T03:29:12;15.13;;;8.70;;
49610;SDS011;35515;48.766;9.176;2024-03-02T03:31:40;12.75;;;8.65;;
49610;SDS011;35515;48.766;9.176;2024-03-02T03:34:07;13.77;;;9.85;;
49610;SDS011;35515;48.766;9.176;2024-03-02T03:36:33;12.88;;;9.73;;
49610;SDS011;35515;48.766;9.176;2024-03-02T03:39:00;18.67;;;9.57;;
49610;SDS011;35515;48.766;9.176;2024-03-02T03:41:28;14.55;;;9.82;;
49610;SDS011;35515;48.766;9.176;2024-03-02T03:43:54;14.23;;;10.13;;
49610;SDS011;35515;48.766;9.176;2024-03-02T03:46:21;16.10;;;10.20;;
49610;SDS011;35515;48.766;9.176;2024-03-02T03:48:49;15.95;;;9.10;;
49610;SDS011;35515;48.766;9.176;2024-03-02T03:51:16;13.88;;;9.60;;
49610;SDS011;35515;48.766;9.176;2024-03-02T03:53:42;14.18;;;9.18;;
49610;SDS011;35515;48.766;9.176;2024-03-02T03:56:09;12.55;;;8.82;;
49610;SDS011;35515;48.766;9.176;2024-03-02T03:58:35;13.40;;;9.30;;
49610;SDS011;35515;48.766;9.176;2024-03-02T04:01:02;14.15;;;9.45;;
49610;SDS011;35515;48.766;9.176;2024-03-02T04:03:29;16.95;;;10.30;;
49610;SDS011;35515;48.766;9.176;2024-03-02T04:05:57;16.45;;;9.50;;
49610;SDS011;35515;48.766;9.176;2024-03-02T04:08:24;16.50;;;10.35;;
49610;SDS011;35515;48.766;9.176;2024-03-02T04:10:50;15.77;;;10.13;;
49610;SDS011;35515;48.766;9.176;2024-03-02T04:13:17;15.38;;;10.05;;
49610;SDS011;35515;48.766;9.176;2024-03-02T04:15:43;16.13;;;10.88;;
49610;SDS011;35515;48.766;9.176;2024-03-02T04:18:10;16.20;;;10.15;;
49610;SDS011;35515;48.766;9.176;2024-03-02T04:20:37;16.67;;;10.80;;
49610;SDS011;35515;48.766;9.176;2024-03-02T04:23:05;16.15;;;10.05;;
49610;SDS011;35515;48.766;9.176;2024-03-02T04:25:31;16.40;;;10.70;;
49610;SDS011;35515;48.766;9.176;2024-03-02T04:27:57;15.20;;;10.15;;
49610;SDS011;35515;48.766;9.176;2024-03-02T04:30:24;14.63;;;10.52;;
49610;SDS011;35515;48.766;9.176;2024-03-02T04:32:51;17.15;;;9.55;;
49610;SDS011;35515;48.766;9.176;2024-03-02T04:35:18;15.25;;;10.30;;
49610;SDS011;35515;48.766;9.176;2024-03-02T04:37:44;15.68;;;9.15;;
49610;SDS011;35515;48.766;9.176;2024-03-02T04:40:13;15.93;;;10.57;;
49610;SDS011;35515;48.766;9.176;2024-03-02T04:42:39;16.15;;;10.18;;
49610;SDS011;35515;48.766;9.176;2024-03-02T04:45:06;16.88;;;10.13;;
49610;SDS011;35515;48.766;9.176;2024-03-02T04:47:33;17.48;;;11.15;;
49610;SDS011;35515;48.766;9.176;2024-03-02T04:50:00;15.68;;;11.27;;
49610;SDS011;35515;48.766;9.176;2024-03-02T04:52:26;15.05;;;10.23;;
49610;SDS011;35515;48.766;9.176;2024-03-02T04:54:53;17.50;;;10.43;;
49610;SDS011;35515;48.766;9.176;2024-03-02T04:57:55;15.05;;;9.88;;
49610;SDS011;35515;48.766;9.176;2024-03-02T05:00:22;16.70;;;11.13;;
49610;SDS011;35515;48.766;9.176;2024-03-02T05:02:49;17.38;;;11.13;;
49610;SDS011;35515;48.766;9.176;2024-03-02T05:05:16;15.77;;;10.23;;
49610;SDS011;35515;48.766;9.176;2024-03-02T05:07:42;16.35;;;10.43;;
49610;SDS011;35515;48.766;9.176;2024-03-02T05:10:09;16.20;;;10.85;;
49610;SDS011;35515;48.766;9.176;2024-03-02T05:12:37;16.95;;;11.10;;
49610;SDS011;35515;48.766;9.176;2024-03-02T05:15:23;20.95;;;11.98;;
49610;SDS011;35515;48.766;9.176;2024-03-02T05:17:49;17.80;;;11.20;;
49610;SDS011;35515;48.766;9.176;2024-03-02T05:20:16;17.00;;;10.60;;
49610;SDS011;35515;48.766;9.176;2024-03-02T05:22:42;17.65;;;11.07;;
49610;SDS011;35515;48.766;9.176;2024-03-02T05:25:09;18.40;;;10.77;;
49610;SDS011;35515;48.766;9.176;2024-03-02T05:27:36;18.17;;;11.65;;
49610;SDS011;35515;48.766;9.176;2024-03-02T05:30:02;16.95;;;11.25;;
49610;SDS011;35515;48.766;9.176;2024-03-02T05:32:32;16.50;;;11.25;;
49610;SDS011;35515;48.766;9.176;2024-03-02T05:34:59;16.77;;;11.10;;
49610;SDS011;35515;48.766;9.176;2024-03-02T05:37:25;17.92;;;11.30;;
49610;SDS011;35515;48.766;9.176;2024-03-02T05:39:52;17.30;;;10.65;;
49610;SDS011;35515;48.766;9.176;2024-03-02T05:42:19;16.20;;;10.65;;
49610;SDS011;35515;48.766;9.176;2024-03-02T05:44:45;19.02;;;11.55;;
49610;SDS011;35515;48.766;9.176;2024-03-02T05:47:12;16.98;;;10.88;;
49610;SDS011;35515;48.766;9.176;2024-03-02T05:49:40;18.55;;;11.18;;
49610;SDS011;35515;48.766;9.176;2024-03-02T05:52:08;16.17;;;11.07;;
49610;SDS011;35515;48.766;9.176;2024-03-02T05:54:34;18.67;;;10.73;;
49610;SDS011;35515;48.766;9.176;2024-03-02T05:57:01;18.83;;;11.63;;
49610;SDS011;35515;48.766;9.176;2024-03-02T05:59:41;18.03;;;10.70;;
49610;SDS011;35515;48.766;9.176;2024-03-02T06:02:08;18.90;;;12.38;;
49610;SDS011;35515;48.766;9.176;2024-03-02T06:04:35;17.38;;;11.27;;
49610;SDS011;35515;48.766;9.176;2024-03-02T06:07:03;18.55;;;10.90;;
49610;SDS011;35515;48.766;9.176;2024-03-02T06:09:29;16.90;;;11.75;;
49610;SDS011;35515;48.766;9.176;2024-03-02T06:11:56;15.52;;;10.85;;
49610;SDS011;35515;48.766;9.176;2024-03-02T06:14:22;18.17;;;11.63;;
49610;SDS011;35515;48.766;9.176;2024-03-02T06:16:51;19.92;;;11.52;;
49610;SDS011;35515;48.766;9.176;2024-03-02T06:19:24;18.77;;;11.77;;
49610;SDS011;35515;48.766;9.176;2024-03-02T06:21:51;17.58;;;11.50;;
49610;SDS011;35515;48.766;9.176;2024-03-02T06:24:19;17.13;;;11.15;;
49610;SDS011;35515;48.766;9.176;2024-03-02T06:26:45;17.05;;;10.77;;
49610;SDS011;35515;48.766;9.176;2024-03-02T06:29:12;13.90;;;9.55;;
49610;SDS011;35515;48.766;9.176;2024-03-02T06:31:38;19.73;;;10.82;;
49610;SDS011;35515;48.766;9.176;2024-03-02T06:34:05;17.00;;;10.55;;
49610;SDS011;35515;48.766;9.176;2024-03-02T06:36:31;18.95;;;12.57;;
49610;SDS011;35515;48.766;9.176;2024-03-02T06:38:58;18.23;;;11.00;;
49610;SDS011;35515;48.766;9.176;2024-03-02T06:41:25;17.02;;;10.82;;
49610;SDS011;35515;48.766;9.176;2024-03-02T06:43:52;17.02;;;10.60;;
49610;SDS011;35515;48.766;9.176;2024-03-02T06:46:24;15.57;;;10.20;;
49610;SDS011;35515;48.766;9.176;2024-03-02T06:48:51;18.58;;;12.07;;
49610;SDS011;35515;48.766;9.176;2024-03-02T06:51:17;18.92;;;12.02;;
49610;SDS011;35515;48.766;9.176;2024-03-02T06:53:44;19.35;;;11.40;;
49610;SDS011;35515;48.766;9.176;2024-03-02T06:56:11;16.80;;;11.38;;
49610;SDS011;35515;48.766;9.176;2024-03-02T06:58:39;19.63;;;11.80;;
49610;SDS011;35515;48.766;9.176;2024-03-02T07:01:05;18.02;;;11.50;;
49610;SDS011;35515;48.766;9.176;2024-03-02T07:03:32;17.40;;;11.65;;
49610;SDS011;35515;48.766;9.176;2024-03-02T07:05:58;19.35;;;11.57;;
49610;SDS011;35515;48.766;9.176;2024-03-02T07:08:25;18.77;;;10.93;;
49610;SDS011;35515;48.766;9.176;2024-03-02T07:10:52;17.02;;;10.90;;
49610;SDS011;35515;48.766;9.176;2024-03-02T07:13:18;18.48;;;11.85;;
49610;SDS011;35515;48.766;9.176;2024-03-02T07:15:46;17.75;;;11.60;;
49610;SDS011;35515;48.766;9.176;2024-03-02T07:18:36;16.63;;;10.90;;
49610;SDS011;35515;48.766;9.176;2024-03-02T07:21:06;17.13;;;10.95;;
49610;SDS011;35515;48.766;9.176;2024-03-02T07:23:33;17.58;;;11.40;;
49610;SDS011;35515;48.766;9.176;2024-03-02T07:26:00;15.73;;;10.45;;
49610;SDS011;35515;48.766;9.176;2024-03-02T07:28:26;17.08;;;11.13;;
49610;SDS011;35515;48.766;9.176;2024-03-02T07:30:58;20.45;;;11.00;;
49610;SDS011;35515;48.766;9.176;2024-03-02T07:33:26;19.38;;;11.38;;
49610;SDS011;35515;48.766;9.176;2024-03-02T07:35:53;18.20;;;11.82;;
49610;SDS011;35515;48.766;9.176;2024-03-02T07:38:20;16.73;;;10.93;;
49610;SDS011;35515;48.766;9.176;2024-03-02T07:40:47;16.55;;;11.45;;
49610;SDS011;35515;48.766;9.176;2024-03-02T07:43:15;14.90;;;10.10;;
49610;SDS011;35515;48.766;9.176;2024-03-02T07:45:42;15.45;;;10.82;;
49610;SDS011;35515;48.766;9.176;2024-03-02T07:48:10;17.02;;;10.88;;
49610;SDS011;35515;48.766;9.176;2024-03-02T07:50:37;15.63;;;9.82;;
49610;SDS011;35515;48.766;9.176;2024-03-02T07:53:04;15.55;;;9.93;;
49610;SDS011;35515;48.766;9.176;2024-03-02T07:55:30;13.05;;;9.48;;
49610;SDS011;35515;48.766;9.176;2024-03-02T07:57:57;15.80;;;10.27;;
49610;SDS011;35515;48.766;9.176;2024-03-02T08:00:24;18.42;;;11.05;;
49610;SDS011;35515;48.766;9.176;2024-03-02T08:02:51;15.25;;;10.30;;
49610;SDS011;35515;48.766;9.176;2024-03-02T08:05:19;16.90;;;11.30;;
49610;SDS011;35515;48.766;9.176;2024-03-02T08:07:47;15.52;;;9.57;;
49610;SDS011;35515;48.766;9.176;2024-03-02T08:10:17;16.45;;;10.30;;
49610;SDS011;35515;48.766;9.176;2024-03-02T08:12:44;13.50;;;9.50;;
49610;SDS011;35515;48.766;9.176;2024-03-02T08:15:11;15.65;;;9.18;;
49610;SDS011;35515;48.766;9.176;2024-03-02T08:17:38;16.23;;;10.07;;
49610;SDS011;35515;48.766;9.176;2024-03-02T08:20:10;13.25;;;9.43;;
49610;SDS011;35515;48.766;9.176;2024-03-02T08:22:38;14.15;;;9.48;;
49610;SDS011;35515;48.766;9.176;2024-03-02T08:25:06;15.80;;;9.13;;
49610;SDS011;35515;48.766;9.176;2024-03-02T08:27:34;12.13;;;8.65;;
49610;SDS011;35515;48.766;9.176;2024-03-02T08:30:01;13.60;;;9.05;;
49610;SDS011;35515;48.766;9.176;2024-03-02T08:32:31;12.88;;;8.80;;
49610;SDS011;35515;48.766;9.176;2024-03-02T08:34:58;12.25;;;8.20;;
49610;SDS011;35515;48.766;9.176;2024-03-02T08:37:24;15.25;;;9.25;;
49610;SDS011;35515;48.766;9.176;2024-03-02T08:39:53;14.82;;;9.57;;
49610;SDS011;35515;48.766;9.176;2024-03-02T08:42:19;13.15;;;8.73;;
49610;SDS011;35515;48.766;9.176;2024-03-02T08:44:46;12.93;;;8.63;;
49610;SDS011;35515;48.766;9.176;2024-03-02T08:47:13;12.73;;;7.85;;
49610;SDS011;35515;48.766;9.176;2024-03-02T08:49:39;14.68;;;8.75;;
49610;SDS011;35515;48.766;9.176;2024-03-02T08:52:06;13.95;;;8.45;;
49610;SDS011;35515;48.766;9.176;2024-03-02T08:54:32;12.00;;;8.00;;
49610;SDS011;35515;48.766;9.176;2024-03-02T08:57:02;13.18;;;8.50;;
49610;SDS011;35515;48.766;9.176;2024-03-02T08:59:29;11.02;;;7.75;;
49610;SDS011;35515;48.766;9.176;2024-03-02T09:01:56;11.70;;;8.20;;
49610;SDS011;35515;48.766;9.176;2024-03-02T09:04:23;12.30;;;8.02;;
49610;SDS011;35515;48.766;9.176;2024-03-02T09:06:50;9.93;;;6.90;;
49610;SDS011;35515;48.766;9.176;2024-03-02T09:09:16;11.30;;;7.55;;
49610;SDS011;35515;48.766;9.176;2024-03-02T09:11:43;9.82;;;6.25;;
49610;SDS011;35515;48.766;9.176;2024-03-02T09:14:11;9.20;;;6.28;;
49610;SDS011;35515;48.766;9.176;2024-03-02T09:16:37;9.82;;;6.25;;
49610;SDS011;35515;48.766;9.176;2024-03-02T09:19:04;10.95;;;6.50;;
49610;SDS011;35515;48.766;9.176;2024-03-02T09:21:30;10.43;;;6.53;;
49610;SDS011;35515;48.766;9.176;2024-03-02T09:23:57;9.60;;;5.70;;
49610;SDS011;35515;48.766;9.176;2024-03-02T09:26:23;9.05;;;6.15;;
49610;SDS011;35515;48.766;9.176;2024-03-02T09:28:50;8.23;;;5.85;;
49610;SDS011;35515;48.766;9.176;2024-03-02T09:31:19;9.13;;;6.32;;
49610;SDS011;35515;48.766;9.176;2024-03-02T09:33:45;10.13;;;7.05;;
49610;SDS011;35515;48.766;9.176;2024-03-02T09:36:21;8.50;;;5.88;;
49610;SDS011;35515;48.766;9.176;2024-03-02T09:38:49;9.63;;;6.43;;
49610;SDS011;35515;48.766;9.176;2024-03-02T09:41:15;8.38;;;5.82;;
49610;SDS011;35515;48.766;9.176;2024-03-02T09:43:45;9.27;;;6.90;;
49610;SDS011;35515;48.766;9.176;2024-03-02T09:46:12;8.15;;;5.85;;
49610;SDS011;35515;48.766;9.176;2024-03-02T09:48:40;13.27;;;6.50;;
49610;SDS011;35515;48.766;9.176;2024-03-02T09:51:06;11.85;;;6.43;;
49610;SDS011;35515;48.766;9.176;2024-03-02T09:53:34;8.70;;;5.70;;
49610;SDS011;35515;48.766;9.176;2024-03-02T09:56:01;7.15;;;5.72;;
49610;SDS011;35515;48.766;9.176;2024-03-02T09:58:28;9.77;;;6.32;;
49610;SDS011;35515;48.766;9.176;2024-03-02T10:00:55;8.10;;;5.95;;
49610;SDS011;35515;48.766;9.176;2024-03-02T10:03:22;9.02;;;5.25;;
49610;SDS011;35515;48.766;9.176;2024-03-02T10:05:50;8.63;;;5.40;;
49610;SDS011;35515;48.766;9.176;2024-03-02T10:08:17;10.95;;;5.30;;
49610;SDS011;35515;48.766;9.176;2024-03-02T10:10:47;8.10;;;6.00;;
49610;SDS011;35515;48.766;9.176;2024-03-02T10:13:14;8.25;;;4.85;;
49610;SDS011;35515;48.766;9.176;2024-03-02T10:15:41;9.43;;;4.53;;
49610;SDS011;35515;48.766;9.176;2024-03-02T10:18:08;6.93;;;4.63;;
49610;SDS011;35515;48.766;9.176;2024-03-02T10:20:36;6.15;;;3.72;;
49610;SDS011;35515;48.766;9.176;2024-03-02T10:23:10;5.45;;;3.47;;
49610;SDS011;35515;48.766;9.176;2024-03-02T10:25:40;6.35;;;4.38;;
49610;SDS011;35515;48.766;9.176;2024-03-02T10:28:07;5.78;;;4.20;;
49610;SDS011;35515;48.766;9.176;2024-03-02T10:30:33;6.13;;;4.00;;
49610;SDS011;35515;48.766;9.176;2024-03-02T10:33:00;7.10;;;4.97;;
49610;SDS011;35515;48.766;9.176;2024-03-02T10:35:28;6.28;;;4.53;;
49610;SDS011;35515;48.766;9.176;2024-03-02T10:37:56;9.48;;;5.03;;
49610;SDS011;35515;48.766;9.176;2024-03-02T10:40:26;7.30;;;4.03;;
49610;SDS011;35515;48.766;9.176;2024-03-02T10:42:53;6.45;;;4.13;;
49610;SDS011;35515;48.766;9.176;2024-03-02T10:45:20;7.18;;;4.53;;
49610;SDS011;35515;48.766;9.176;2024-03-02T10:47:47;7.13;;;4.47;;
49610;SDS011;35515;48.766;9.176;2024-03-02T10:50:14;6.03;;;5.05;;
49610;SDS011;35515;48.766;9.176;2024-03-02T10:52:41;6.28;;;4.43;;
49610;SDS011;35515;48.766;9.176;2024-03-02T10:55:08;7.32;;;4.15;;
49610;SDS011;35515;48.766;9.176;2024-03-02T10:57:40;6.93;;;3.72;;
49610;SDS011;35515;48.766;9.176;2024-03-02T11:00:11;6.25;;;4.38;;
49610;SDS011;35515;48.766;9.176;2024-03-02T11:02:42;6.97;;;4.35;;
49610;SDS011;35515;48.766;9.176;2024-03-02T11:05:16;7.15;;;4.50;;
49610;SDS011;35515;48.766;9.176;2024-03-02T11:07:52;6.40;;;4.07;;
49610;SDS011;35515;48.766;9.176;2024-03-02T11:10:23;5.75;;;3.85;;
49610;SDS011;35515;48.766;9.176;2024-03-02T11:12:53;5.72;;;3.63;;
49610;SDS011;35515;48.766;9.176;2024-03-02T11:15:26;6.55;;;3.90;;
49610;SDS011;35515;48.766;9.176;2024-03-02T11:17:53;5.55;;;3.30;;
49610;SDS011;35515;48.766;9.176;2024-03-02T11:20:21;5.15;;;3.70;;
49610;SDS011;35515;48.766;9.176;2024-03-02T11:22:48;5.80;;;3.30;;
49610;SDS011;35515;48.766;9.176;2024-03-02T11:25:24;4.30;;;3.05;;
49610;SDS011;35515;48.766;9.176;2024-03-02T11:30:49;3.10;;;1.95;;
49610;SDS011;35515;48.766;9.176;2024-03-02T11:33:16;1.77;;;1.33;;
49610;SDS011;35515;48.766;9.176;2024-03-02T11:35:50;2.90;;;1.55;;
49610;SDS011;35515;48.766;9.176;2024-03-02T11:38:17;3.78;;;1.42;;
49610;SDS011;35515;48.766;9.176;2024-03-02T11:40:44;4.10;;;1.95;;
49610;SDS011;35515;48.766;9.176;2024-03-02T11:43:12;3.78;;;1.42;;
49610;SDS011;35515;48.766;9.176;2024-03-02T11:45:39;1.73;;;1.27;;
49610;SDS011;35515;48.766;9.176;2024-03-02T11:48:08;1.35;;;1.13;;
49610;SDS011;35515;48.766;9.176;2024-03-02T11:50:40;2.38;;;1.48;;
49610;SDS011;35515;48.766;9.176;2024-03-02T11:53:08;1.38;;;1.08;;
49610;SDS011;35515;48.766;9.176;2024-03-02T11:55:35;2.47;;;1.10;;
49610;SDS011;35515;48.766;9.176;2024-03-02T11:58:03;2.60;;;1.63;;
49610;SDS011;35515;48.766;9.176;2024-03-02T12:00:31;2.88;;;1.58;;
49610;SDS011;35515;48.766;9.176;2024-03-02T12:02:59;3.13;;;1.83;;
49610;SDS011;35515;48.766;9.176;2024-03-02T12:05:27;3.05;;;1.80;;
49610;SDS011;35515;48.766;9.176;2024-03-02T12:07:55;2.03;;;1.20;;
49610;SDS011;35515;48.766;9.176;2024-03-02T12:10:22;2.50;;;1.60;;
49610;SDS011;35515;48.766;9.176;2024-03-02T12:12:54;3.10;;;1.40;;
49610;SDS011;35515;48.766;9.176;2024-03-02T12:15:22;3.97;;;1.70;;
49610;SDS011;35515;48.766;9.176;2024-03-02T12:17:53;2.67;;;1.48;;
49610;SDS011;35515;48.766;9.176;2024-03-02T12:20:21;1.42;;;1.30;;
49610;SDS011;35515;48.766;9.176;2024-03-02T12:22:48;2.97;;;1.52;;
49610;SDS011;35515;48.766;9.176;2024-03-02T12:25:15;1.20;;;1.10;;
49610;SDS011;35515;48.766;9.176;2024-03-02T12:27:42;2.13;;;1.60;;
49610;SDS011;35515;48.766;9.176;2024-03-02T12:30:09;2.33;;;1.60;;
49610;SDS011;35515;48.766;9.176;2024-03-02T12:32:38;2.03;;;1.33;;
49610;SDS011;35515;48.766;9.176;2024-03-02T12:35:07;1.42;;;1.10;;
49610;SDS011;35515;48.766;9.176;2024-03-02T12:37:41;3.67;;;1.50;;
49610;SDS011;35515;48.766;9.176;2024-03-02T12:40:09;2.50;;;1.30;;
49610;SDS011;35515;48.766;9.176;2024-03-02T12:42:37;2.13;;;1.55;;
49610;SDS011;35515;48.766;9.176;2024-03-02T12:45:05;1.92;;;1.35;;
49610;SDS011;35515;48.766;9.176;2024-03-02T12:47:32;2.83;;;1.67;;
49610;SDS011;35515;48.766;9.176;2024-03-02T12:49:59;4.28;;;2.90;;
49610;SDS011;35515;48.766;9.176;2024-03-02T12:52:27;4.85;;;3.15;;
49610;SDS011;35515;48.766;9.176;2024-03-02T12:54:53;2.63;;;1.60;;
49610;SDS011;35515;48.766;9.176;2024-03-02T12:57:24;2.70;;;1.80;;
49610;SDS011;35515;48.766;9.176;2024-03-02T12:59:52;3.05;;;1.60;;
49610;SDS011;35515;48.766;9.176;2024-03-02T13:02:19;3.92;;;1.95;;
49610;SDS011;35515;48.766;9.176;2024-03-02T13:04:51;2.20;;;1.50;;
49610;SDS011;35515;48.766;9.176;2024-03-02T13:07:19;2.65;;;1.90;;
49610;SDS011;35515;48.766;9.176;2024-03-02T13:09:48;2.78;;;1.77;;
49610;SDS011;35515;48.766;9.176;2024-03-02T13:12:15;2.45;;;1.65;;
49610;SDS011;35515;48.766;9.176;2024-03-02T13:14:42;2.67;;;1.60;;
49610;SDS011;35515;48.766;9.176;2024-03-02T13:17:08;4.15;;;1.80;;
49610;SDS011;35515;48.766;9.176;2024-03-02T13:19:35;2.65;;;1.38;;
49610;SDS011;35515;48.766;9.176;2024-03-02T13:22:02;2.30;;;1.60;;
49610;SDS011;35515;48.766;9.176;2024-03-02T13:24:29;3.20;;;2.00;;
49610;SDS011;35515;48.766;9.176;2024-03-02T13:26:57;2.33;;;1.60;;
49610;SDS011;35515;48.766;9.176;2024-03-02T13:29:25;3.80;;;1.70;;
49610;SDS011;35515;48.766;9.176;2024-03-02T13:31:51;3.25;;;2.22;;
49610;SDS011;35515;48.766;9.176;2024-03-02T13:34:18;4.13;;;1.90;;
49610;SDS011;35515;48.766;9.176;2024-03-02T13:36:44;5.13;;;2.25;;
49610;SDS011;35515;48.766;9.176;2024-03-02T13:39:11;3.30;;;1.90;;
49610;SDS011;35515;48.766;9.176;2024-03-02T13:41:40;4.93;;;2.20;;
49610;SDS011;35515;48.766;9.176;2024-03-02T13:44:08;4.13;;;1.70;;
49610;SDS011;35515;48.766;9.176;2024-03-02T13:46:34;3.13;;;1.83;;
49610;SDS011;35515;48.766;9.176;2024-03-02T13:49:01;2.55;;;1.60;;
49610;SDS011;35515;48.766;9.176;2024-03-02T13:51:29;4.53;;;2.42;;
49610;SDS011;35515;48.766;9.176;2024-03-02T13:53:57;3.97;;;1.65;;
49610;SDS011;35515;48.766;9.176;2024-03-02T13:56:23;4.30;;;2.33;;
49610;SDS011;35515;48.766;9.176;2024-03-02T13:58:50;2.35;;;1.48;;
49610;SDS011;35515;48.766;9.176;2024-03-02T14:01:17;1.90;;;1.55;;
49610;SDS011;35515;48.766;9.176;2024-03-02T14:03:44;3.45;;;1.88;;
49610;SDS011;35515;48.766;9.176;2024-03-02T14:06:11;2.95;;;1.83;;
49610;SDS011;35515;48.766;9.176;2024-03-02T14:08:38;2.03;;;1.52;;
49610;SDS011;35515;48.766;9.176;2024-03-02T14:11:04;3.13;;;2.15;;
49610;SDS011;35515;48.766;9.176;2024-03-02T14:13:31;2.25;;;1.42;;
49610;SDS011;35515;48.766;9.176;2024-03-02T14:15:57;2.40;;;1.52;;
49610;SDS011;35515;48.766;9.176;2024-03-02T14:18:25;2.38;;;1.50;;
49610;SDS011;35515;48.766;9.176;2024-03-02T14:20:52;1.70;;;1.25;;
49610;SDS011;35515;48.766;9.176;2024-03-02T14:23:18;1.75;;;1.35;;
49610;SDS011;35515;48.766;9.176;2024-03-02T14:25:45;4.15;;;1.75;;
49610;SDS011;35515;48.766;9.176;2024-03-02T14:28:12;2.28;;;1.60;;
49610;SDS011;35515;48.766;9.176;2024-03-02T14:30:41;2.03;;;1.50;;
49610;SDS011;35515;48.766;9.176;2024-03-02T14:33:07;2.70;;;1.38;;
49610;SDS011;35515;48.766;9.176;2024-03-02T14:35:37;2.72;;;1.50;;
49610;SDS011;35515;48.766;9.176;2024-03-02T14:38:04;1.90;;;1.42;;
49610;SDS011;35515;48.766;9.176;2024-03-02T14:40:31;2.05;;;1.27;;